sensor_id;sensor_type;location;lat;lon;timestamp;P1;durP1;ratioP1;P2;durP2;ratioP2
34765;SDS011;20984;43.508;1.504;2022-10-10T00:02:12;7.53;;;5.70;;
34765;SDS011;20984;43.508;1.504;2022-10-10T00:04:38;10.25;;;5.80;;
34765;SDS011;20984;43.508;1.504;2022-10-10T00:07:04;10.73;;;5.68;;
34765;SDS011;20984;43.508;1.504;2022-10-10T00:09:30;8.60;;;5.35;;
34765;SDS011;20984;43.508;1.504;2022-10-10T00:11:56;10.65;;;5.47;;
34765;SDS011;20984;43.508;1.504;2022-10-10T00:14:21;14.73;;;5.22;;
34765;SDS011;20984;43.508;1.504;2022-10-10T00:16:47;13.25;;;5.22;;
34765;SDS011;20984;43.508;1.504;2022-10-10T00:19:13;8.75;;;5.20;;
34765;SDS011;20984;43.508;1.504;2022-10-10T00:21:40;8.82;;;5.78;;
34765;SDS011;20984;43.508;1.504;2022-10-10T00:24:06;13.82;;;5.55;;
34765;SDS011;20984;43.508;1.504;2022-10-10T00:26:32;11.50;;;5.85;;
34765;SDS011;20984;43.508;1.504;2022-10-10T00:28:58;8.43;;;5.60;;
34765;SDS011;20984;43.508;1.504;2022-10-10T00:31:24;13.65;;;6.35;;
34765;SDS011;20984;43.508;1.504;2022-10-10T00:33:50;9.35;;;5.72;;
34765;SDS011;20984;43.508;1.504;2022-10-10T00:36:16;13.02;;;6.47;;
34765;SDS011;20984;43.508;1.504;2022-10-10T00:38:44;11.82;;;6.10;;
34765;SDS011;20984;43.508;1.504;2022-10-10T00:41:10;12.05;;;7.45;;
34765;SDS011;20984;43.508;1.504;2022-10-10T00:43:36;12.10;;;6.57;;
34765;SDS011;20984;43.508;1.504;2022-10-10T00:46:02;8.40;;;5.63;;
34765;SDS011;20984;43.508;1.504;2022-10-10T00:48:32;13.30;;;6.25;;
34765;SDS011;20984;43.508;1.504;2022-10-10T00:51:10;11.50;;;6.85;;
34765;SDS011;20984;43.508;1.504;2022-10-10T00:53:43;10.60;;;5.47;;
34765;SDS011;20984;43.508;1.504;2022-10-10T00:56:13;11.23;;;6.13;;
34765;SDS011;20984;43.508;1.504;2022-10-10T00:58:42;12.90;;;6.50;;
34765;SDS011;20984;43.508;1.504;2022-10-10T01:01:12;13.48;;;5.90;;
34765;SDS011;20984;43.508;1.504;2022-10-10T01:03:38;8.93;;;5.97;;
34765;SDS011;20984;43.508;1.504;2022-10-10T01:06:04;8.95;;;5.70;;
34765;SDS011;20984;43.508;1.504;2022-10-10T01:08:30;12.35;;;6.05;;
34765;SDS011;20984;43.508;1.504;2022-10-10T01:11:03;12.93;;;5.70;;
34765;SDS011;20984;43.508;1.504;2022-10-10T01:16:26;16.58;;;6.15;;
34765;SDS011;20984;43.508;1.504;2022-10-10T01:29:30;13.50;;;6.20;;
34765;SDS011;20984;43.508;1.504;2022-10-10T01:32:04;12.73;;;6.80;;
34765;SDS011;20984;43.508;1.504;2022-10-10T01:37:33;8.13;;;6.18;;
34765;SDS011;20984;43.508;1.504;2022-10-10T01:42:52;8.57;;;5.75;;
34765;SDS011;20984;43.508;1.504;2022-10-10T01:45:21;14.57;;;7.10;;
34765;SDS011;20984;43.508;1.504;2022-10-10T01:47:47;14.20;;;7.20;;
34765;SDS011;20984;43.508;1.504;2022-10-10T01:50:15;9.07;;;6.55;;
34765;SDS011;20984;43.508;1.504;2022-10-10T01:55:41;14.15;;;6.97;;
34765;SDS011;20984;43.508;1.504;2022-10-10T01:58:56;14.00;;;7.13;;
34765;SDS011;20984;43.508;1.504;2022-10-10T02:01:26;16.38;;;7.15;;
34765;SDS011;20984;43.508;1.504;2022-10-10T02:04:16;12.18;;;7.20;;
34765;SDS011;20984;43.508;1.504;2022-10-10T02:07:09;13.45;;;7.53;;
34765;SDS011;20984;43.508;1.504;2022-10-10T02:12:06;16.58;;;7.88;;
34765;SDS011;20984;43.508;1.504;2022-10-10T02:14:45;12.63;;;7.93;;
34765;SDS011;20984;43.508;1.504;2022-10-10T02:17:15;14.48;;;8.80;;
34765;SDS011;20984;43.508;1.504;2022-10-10T02:19:43;11.95;;;8.30;;
34765;SDS011;20984;43.508;1.504;2022-10-10T02:22:13;14.77;;;8.90;;
34765;SDS011;20984;43.508;1.504;2022-10-10T02:24:39;15.52;;;8.88;;
34765;SDS011;20984;43.508;1.504;2022-10-10T02:27:17;17.20;;;9.43;;
34765;SDS011;20984;43.508;1.504;2022-10-10T02:29:44;10.85;;;8.20;;
34765;SDS011;20984;43.508;1.504;2022-10-10T02:32:23;11.88;;;8.20;;
34765;SDS011;20984;43.508;1.504;2022-10-10T02:34:50;14.52;;;9.85;;
34765;SDS011;20984;43.508;1.504;2022-10-10T02:37:19;15.98;;;9.73;;
34765;SDS011;20984;43.508;1.504;2022-10-10T02:39:50;14.00;;;9.18;;
34765;SDS011;20984;43.508;1.504;2022-10-10T02:42:20;13.60;;;8.95;;
34765;SDS011;20984;43.508;1.504;2022-10-10T02:44:47;16.33;;;9.55;;
34765;SDS011;20984;43.508;1.504;2022-10-10T02:47:14;12.10;;;9.05;;
34765;SDS011;20984;43.508;1.504;2022-10-10T02:49:40;16.65;;;8.43;;
34765;SDS011;20984;43.508;1.504;2022-10-10T02:52:06;13.57;;;9.38;;
34765;SDS011;20984;43.508;1.504;2022-10-10T02:54:32;20.20;;;9.73;;
34765;SDS011;20984;43.508;1.504;2022-10-10T02:56:58;16.33;;;9.95;;
34765;SDS011;20984;43.508;1.504;2022-10-10T02:59:24;15.93;;;9.60;;
34765;SDS011;20984;43.508;1.504;2022-10-10T03:01:50;19.52;;;10.23;;
34765;SDS011;20984;43.508;1.504;2022-10-10T03:04:16;14.13;;;9.25;;
34765;SDS011;20984;43.508;1.504;2022-10-10T03:06:42;17.55;;;10.15;;
34765;SDS011;20984;43.508;1.504;2022-10-10T03:09:08;14.73;;;9.73;;
34765;SDS011;20984;43.508;1.504;2022-10-10T03:11:33;16.15;;;10.02;;
34765;SDS011;20984;43.508;1.504;2022-10-10T03:13:59;18.27;;;10.30;;
34765;SDS011;20984;43.508;1.504;2022-10-10T03:16:25;16.27;;;10.73;;
34765;SDS011;20984;43.508;1.504;2022-10-10T03:18:51;11.68;;;10.05;;
34765;SDS011;20984;43.508;1.504;2022-10-10T03:21:17;14.77;;;11.27;;
34765;SDS011;20984;43.508;1.504;2022-10-10T03:23:43;14.23;;;10.88;;
34765;SDS011;20984;43.508;1.504;2022-10-10T03:26:08;18.48;;;10.93;;
34765;SDS011;20984;43.508;1.504;2022-10-10T03:28:37;16.45;;;10.30;;
34765;SDS011;20984;43.508;1.504;2022-10-10T03:31:03;18.02;;;11.38;;
34765;SDS011;20984;43.508;1.504;2022-10-10T03:33:29;13.30;;;9.35;;
34765;SDS011;20984;43.508;1.504;2022-10-10T03:35:55;18.77;;;10.70;;
34765;SDS011;20984;43.508;1.504;2022-10-10T03:38:21;21.30;;;11.13;;
34765;SDS011;20984;43.508;1.504;2022-10-10T03:40:47;12.07;;;9.27;;
34765;SDS011;20984;43.508;1.504;2022-10-10T03:43:13;13.18;;;9.85;;
34765;SDS011;20984;43.508;1.504;2022-10-10T03:45:42;16.17;;;10.63;;
34765;SDS011;20984;43.508;1.504;2022-10-10T03:48:11;12.18;;;10.23;;
34765;SDS011;20984;43.508;1.504;2022-10-10T03:50:38;15.18;;;9.07;;
34765;SDS011;20984;43.508;1.504;2022-10-10T03:53:04;15.68;;;9.80;;
34765;SDS011;20984;43.508;1.504;2022-10-10T03:55:30;20.80;;;10.35;;
34765;SDS011;20984;43.508;1.504;2022-10-10T03:57:56;12.25;;;9.38;;
34765;SDS011;20984;43.508;1.504;2022-10-10T04:00:22;14.20;;;10.23;;
34765;SDS011;20984;43.508;1.504;2022-10-10T04:02:48;16.13;;;10.55;;
34765;SDS011;20984;43.508;1.504;2022-10-10T04:05:14;13.63;;;8.57;;
34765;SDS011;20984;43.508;1.504;2022-10-10T04:07:40;16.02;;;10.75;;
34765;SDS011;20984;43.508;1.504;2022-10-10T04:10:06;14.95;;;9.38;;
34765;SDS011;20984;43.508;1.504;2022-10-10T04:12:33;13.70;;;9.18;;
34765;SDS011;20984;43.508;1.504;2022-10-10T04:14:59;12.35;;;8.52;;
34765;SDS011;20984;43.508;1.504;2022-10-10T04:17:25;17.67;;;9.38;;
34765;SDS011;20984;43.508;1.504;2022-10-10T04:19:51;14.18;;;9.18;;
34765;SDS011;20984;43.508;1.504;2022-10-10T04:22:17;10.43;;;8.05;;
34765;SDS011;20984;43.508;1.504;2022-10-10T04:24:43;11.43;;;9.07;;
34765;SDS011;20984;43.508;1.504;2022-10-10T04:27:09;10.65;;;8.60;;
34765;SDS011;20984;43.508;1.504;2022-10-10T04:29:35;10.88;;;8.02;;
34765;SDS011;20984;43.508;1.504;2022-10-10T04:32:01;15.20;;;8.82;;
34765;SDS011;20984;43.508;1.504;2022-10-10T04:34:27;10.45;;;8.88;;
34765;SDS011;20984;43.508;1.504;2022-10-10T04:36:53;14.07;;;9.35;;
34765;SDS011;20984;43.508;1.504;2022-10-10T04:39:19;14.10;;;8.73;;
34765;SDS011;20984;43.508;1.504;2022-10-10T04:41:45;11.25;;;8.48;;
34765;SDS011;20984;43.508;1.504;2022-10-10T04:44:15;11.07;;;8.27;;
34765;SDS011;20984;43.508;1.504;2022-10-10T04:46:41;11.98;;;8.23;;
34765;SDS011;20984;43.508;1.504;2022-10-10T04:49:07;12.43;;;8.65;;
34765;SDS011;20984;43.508;1.504;2022-10-10T04:51:33;12.32;;;8.80;;
34765;SDS011;20984;43.508;1.504;2022-10-10T04:53:59;12.63;;;8.57;;
34765;SDS011;20984;43.508;1.504;2022-10-10T04:56:25;13.02;;;9.60;;
34765;SDS011;20984;43.508;1.504;2022-10-10T04:58:51;19.60;;;9.43;;
34765;SDS011;20984;43.508;1.504;2022-10-10T05:01:17;14.13;;;8.57;;
34765;SDS011;20984;43.508;1.504;2022-10-10T05:03:43;12.43;;;7.93;;
34765;SDS011;20984;43.508;1.504;2022-10-10T05:06:09;12.07;;;8.93;;
34765;SDS011;20984;43.508;1.504;2022-10-10T05:08:35;14.73;;;8.55;;
34765;SDS011;20984;43.508;1.504;2022-10-10T05:11:00;15.98;;;8.20;;
34765;SDS011;20984;43.508;1.504;2022-10-10T05:13:26;15.75;;;8.60;;
34765;SDS011;20984;43.508;1.504;2022-10-10T05:15:52;16.42;;;8.25;;
34765;SDS011;20984;43.508;1.504;2022-10-10T05:18:19;14.82;;;8.80;;
34765;SDS011;20984;43.508;1.504;2022-10-10T05:20:45;19.95;;;9.25;;
34765;SDS011;20984;43.508;1.504;2022-10-10T05:23:15;18.63;;;9.68;;
34765;SDS011;20984;43.508;1.504;2022-10-10T05:25:46;13.65;;;9.55;;
34765;SDS011;20984;43.508;1.504;2022-10-10T05:28:13;19.15;;;9.40;;
34765;SDS011;20984;43.508;1.504;2022-10-10T05:30:39;22.80;;;9.40;;
34765;SDS011;20984;43.508;1.504;2022-10-10T05:33:05;10.70;;;9.48;;
34765;SDS011;20984;43.508;1.504;2022-10-10T05:35:31;18.35;;;9.73;;
34765;SDS011;20984;43.508;1.504;2022-10-10T05:37:57;18.13;;;10.02;;
34765;SDS011;20984;43.508;1.504;2022-10-10T05:40:22;15.13;;;9.90;;
34765;SDS011;20984;43.508;1.504;2022-10-10T05:42:48;18.05;;;11.38;;
34765;SDS011;20984;43.508;1.504;2022-10-10T05:45:14;15.38;;;10.23;;
34765;SDS011;20984;43.508;1.504;2022-10-10T05:47:41;23.05;;;11.20;;
34765;SDS011;20984;43.508;1.504;2022-10-10T05:50:07;25.25;;;11.80;;
34765;SDS011;20984;43.508;1.504;2022-10-10T05:52:53;14.88;;;10.60;;
34765;SDS011;20984;43.508;1.504;2022-10-10T05:55:18;17.92;;;11.13;;
34765;SDS011;20984;43.508;1.504;2022-10-10T05:57:44;20.20;;;11.60;;
34765;SDS011;20984;43.508;1.504;2022-10-10T06:00:10;13.95;;;11.13;;
34765;SDS011;20984;43.508;1.504;2022-10-10T06:02:37;24.45;;;11.88;;
34765;SDS011;20984;43.508;1.504;2022-10-10T06:05:02;16.25;;;10.45;;
34765;SDS011;20984;43.508;1.504;2022-10-10T06:07:29;14.43;;;11.15;;
34765;SDS011;20984;43.508;1.504;2022-10-10T06:09:54;16.67;;;10.43;;
34765;SDS011;20984;43.508;1.504;2022-10-10T06:12:20;22.70;;;11.52;;
34765;SDS011;20984;43.508;1.504;2022-10-10T06:14:46;21.17;;;10.43;;
34765;SDS011;20984;43.508;1.504;2022-10-10T06:17:12;17.05;;;9.65;;
34765;SDS011;20984;43.508;1.504;2022-10-10T06:19:38;14.65;;;9.10;;
34765;SDS011;20984;43.508;1.504;2022-10-10T06:22:04;20.65;;;10.70;;
34765;SDS011;20984;43.508;1.504;2022-10-10T06:24:30;12.98;;;9.13;;
34765;SDS011;20984;43.508;1.504;2022-10-10T06:26:56;16.58;;;9.15;;
34765;SDS011;20984;43.508;1.504;2022-10-10T06:29:21;16.38;;;8.55;;
34765;SDS011;20984;43.508;1.504;2022-10-10T06:31:47;23.40;;;9.23;;
34765;SDS011;20984;43.508;1.504;2022-10-10T06:34:13;10.90;;;8.32;;
34765;SDS011;20984;43.508;1.504;2022-10-10T06:36:39;21.83;;;9.73;;
34765;SDS011;20984;43.508;1.504;2022-10-10T06:39:05;17.27;;;8.57;;
34765;SDS011;20984;43.508;1.504;2022-10-10T06:41:30;21.15;;;9.13;;
34765;SDS011;20984;43.508;1.504;2022-10-10T06:43:56;17.00;;;8.30;;
34765;SDS011;20984;43.508;1.504;2022-10-10T06:46:22;13.02;;;8.05;;
34765;SDS011;20984;43.508;1.504;2022-10-10T06:48:48;18.13;;;8.48;;
34765;SDS011;20984;43.508;1.504;2022-10-10T06:51:14;15.43;;;6.72;;
34765;SDS011;20984;43.508;1.504;2022-10-10T06:53:41;16.85;;;7.00;;
34765;SDS011;20984;43.508;1.504;2022-10-10T06:56:12;13.73;;;7.90;;
34765;SDS011;20984;43.508;1.504;2022-10-10T06:58:45;13.90;;;6.55;;
34765;SDS011;20984;43.508;1.504;2022-10-10T07:01:12;12.60;;;7.25;;
34765;SDS011;20984;43.508;1.504;2022-10-10T07:03:41;13.50;;;7.03;;
34765;SDS011;20984;43.508;1.504;2022-10-10T07:06:08;9.18;;;5.82;;
34765;SDS011;20984;43.508;1.504;2022-10-10T07:08:35;17.98;;;6.53;;
34765;SDS011;20984;43.508;1.504;2022-10-10T07:11:02;12.73;;;6.15;;
34765;SDS011;20984;43.508;1.504;2022-10-10T07:13:28;15.30;;;7.13;;
34765;SDS011;20984;43.508;1.504;2022-10-10T07:15:54;14.77;;;6.95;;
34765;SDS011;20984;43.508;1.504;2022-10-10T07:18:21;14.30;;;6.97;;
34765;SDS011;20984;43.508;1.504;2022-10-10T07:20:47;8.88;;;6.28;;
34765;SDS011;20984;43.508;1.504;2022-10-10T07:23:13;14.23;;;7.32;;
34765;SDS011;20984;43.508;1.504;2022-10-10T07:25:40;21.60;;;6.53;;
34765;SDS011;20984;43.508;1.504;2022-10-10T07:28:07;13.52;;;6.82;;
34765;SDS011;20984;43.508;1.504;2022-10-10T07:30:38;8.60;;;5.95;;
34765;SDS011;20984;43.508;1.504;2022-10-10T07:33:08;8.93;;;5.53;;
34765;SDS011;20984;43.508;1.504;2022-10-10T07:35:34;13.73;;;6.00;;
34765;SDS011;20984;43.508;1.504;2022-10-10T07:38:00;15.60;;;6.53;;
34765;SDS011;20984;43.508;1.504;2022-10-10T07:40:27;18.13;;;6.50;;
34765;SDS011;20984;43.508;1.504;2022-10-10T07:42:53;8.93;;;5.68;;
34765;SDS011;20984;43.508;1.504;2022-10-10T07:45:19;14.32;;;5.90;;
34765;SDS011;20984;43.508;1.504;2022-10-10T07:47:45;24.40;;;5.85;;
34765;SDS011;20984;43.508;1.504;2022-10-10T07:50:11;15.13;;;5.82;;
34765;SDS011;20984;43.508;1.504;2022-10-10T07:52:37;13.18;;;6.18;;
34765;SDS011;20984;43.508;1.504;2022-10-10T07:55:04;19.65;;;6.45;;
34765;SDS011;20984;43.508;1.504;2022-10-10T07:57:31;14.18;;;5.65;;
34765;SDS011;20984;43.508;1.504;2022-10-10T08:00:06;11.55;;;5.75;;
34765;SDS011;20984;43.508;1.504;2022-10-10T08:02:33;11.25;;;5.60;;
34765;SDS011;20984;43.508;1.504;2022-10-10T08:04:59;11.60;;;5.40;;
34765;SDS011;20984;43.508;1.504;2022-10-10T08:07:25;12.05;;;5.53;;
34765;SDS011;20984;43.508;1.504;2022-10-10T08:09:51;11.38;;;5.57;;
34765;SDS011;20984;43.508;1.504;2022-10-10T08:12:17;16.17;;;6.55;;
34765;SDS011;20984;43.508;1.504;2022-10-10T08:14:43;20.88;;;5.45;;
34765;SDS011;20984;43.508;1.504;2022-10-10T08:17:09;14.80;;;6.13;;
34765;SDS011;20984;43.508;1.504;2022-10-10T08:19:35;20.50;;;5.95;;
34765;SDS011;20984;43.508;1.504;2022-10-10T08:22:01;16.75;;;5.85;;
34765;SDS011;20984;43.508;1.504;2022-10-10T08:24:27;14.20;;;5.68;;
34765;SDS011;20984;43.508;1.504;2022-10-10T08:26:52;15.93;;;5.65;;
34765;SDS011;20984;43.508;1.504;2022-10-10T08:29:18;10.43;;;5.00;;
34765;SDS011;20984;43.508;1.504;2022-10-10T08:31:44;12.60;;;5.55;;
34765;SDS011;20984;43.508;1.504;2022-10-10T08:34:10;10.05;;;5.90;;
34765;SDS011;20984;43.508;1.504;2022-10-10T08:36:37;19.98;;;5.65;;
34765;SDS011;20984;43.508;1.504;2022-10-10T08:39:03;17.90;;;6.20;;
34765;SDS011;20984;43.508;1.504;2022-10-10T08:44:02;17.33;;;5.20;;
34765;SDS011;20984;43.508;1.504;2022-10-10T08:49:56;17.98;;;5.07;;
34765;SDS011;20984;43.508;1.504;2022-10-10T08:52:31;12.35;;;4.80;;
34765;SDS011;20984;43.508;1.504;2022-10-10T08:55:03;9.10;;;5.00;;
34765;SDS011;20984;43.508;1.504;2022-10-10T09:00:17;13.70;;;4.72;;
34765;SDS011;20984;43.508;1.504;2022-10-10T09:02:48;14.05;;;5.50;;
34765;SDS011;20984;43.508;1.504;2022-10-10T09:05:15;9.82;;;4.65;;
34765;SDS011;20984;43.508;1.504;2022-10-10T09:07:52;8.17;;;3.90;;
34765;SDS011;20984;43.508;1.504;2022-10-10T09:10:41;9.95;;;4.70;;
34765;SDS011;20984;43.508;1.504;2022-10-10T09:13:33;14.05;;;5.18;;
34765;SDS011;20984;43.508;1.504;2022-10-10T09:16:05;12.35;;;4.80;;
34765;SDS011;20984;43.508;1.504;2022-10-10T09:21:27;10.98;;;4.70;;
34765;SDS011;20984;43.508;1.504;2022-10-10T09:23:59;11.52;;;4.28;;
34765;SDS011;20984;43.508;1.504;2022-10-10T09:26:34;14.98;;;5.00;;
34765;SDS011;20984;43.508;1.504;2022-10-10T09:31:56;7.35;;;4.60;;
34765;SDS011;20984;43.508;1.504;2022-10-10T09:37:02;9.88;;;4.70;;
34765;SDS011;20984;43.508;1.504;2022-10-10T09:39:37;9.63;;;4.38;;
34765;SDS011;20984;43.508;1.504;2022-10-10T09:42:14;10.50;;;3.85;;
34765;SDS011;20984;43.508;1.504;2022-10-10T09:44:45;8.93;;;3.95;;
34765;SDS011;20984;43.508;1.504;2022-10-10T09:47:12;7.65;;;3.92;;
34765;SDS011;20984;43.508;1.504;2022-10-10T09:49:39;20.65;;;4.68;;
34765;SDS011;20984;43.508;1.504;2022-10-10T09:52:16;9.45;;;3.67;;
34765;SDS011;20984;43.508;1.504;2022-10-10T09:54:54;20.08;;;5.80;;
34765;SDS011;20984;43.508;1.504;2022-10-10T09:57:29;10.30;;;3.42;;
34765;SDS011;20984;43.508;1.504;2022-10-10T09:59:59;11.68;;;4.38;;
34765;SDS011;20984;43.508;1.504;2022-10-10T10:03:29;11.35;;;3.85;;
34765;SDS011;20984;43.508;1.504;2022-10-10T10:05:35;18.63;;;4.25;;
34765;SDS011;20984;43.508;1.504;2022-10-10T10:08:02;10.80;;;3.55;;
34765;SDS011;20984;43.508;1.504;2022-10-10T10:10:27;14.68;;;4.15;;
34765;SDS011;20984;43.508;1.504;2022-10-10T10:12:58;9.55;;;4.00;;
34765;SDS011;20984;43.508;1.504;2022-10-10T10:15:25;13.32;;;3.55;;
34765;SDS011;20984;43.508;1.504;2022-10-10T10:18:10;14.23;;;4.10;;
34765;SDS011;20984;43.508;1.504;2022-10-10T10:20:42;15.43;;;4.63;;
34765;SDS011;20984;43.508;1.504;2022-10-10T10:26:21;7.15;;;3.78;;
34765;SDS011;20984;43.508;1.504;2022-10-10T10:28:50;6.68;;;3.28;;
34765;SDS011;20984;43.508;1.504;2022-10-10T10:31:21;8.30;;;3.33;;
34765;SDS011;20984;43.508;1.504;2022-10-10T10:36:43;12.10;;;3.75;;
34765;SDS011;20984;43.508;1.504;2022-10-10T10:47:52;13.98;;;3.33;;
34765;SDS011;20984;43.508;1.504;2022-10-10T10:56:07;7.65;;;2.53;;
34765;SDS011;20984;43.508;1.504;2022-10-10T11:01:50;10.27;;;3.40;;
34765;SDS011;20984;43.508;1.504;2022-10-10T11:07:53;11.57;;;3.55;;
34765;SDS011;20984;43.508;1.504;2022-10-10T11:10:43;9.13;;;3.38;;
34765;SDS011;20984;43.508;1.504;2022-10-10T11:16:13;12.57;;;3.15;;
34765;SDS011;20984;43.508;1.504;2022-10-10T11:18:58;7.75;;;3.55;;
34765;SDS011;20984;43.508;1.504;2022-10-10T11:21:37;8.45;;;2.92;;
34765;SDS011;20984;43.508;1.504;2022-10-10T11:24:11;6.00;;;2.58;;
34765;SDS011;20984;43.508;1.504;2022-10-10T11:26:46;7.55;;;2.88;;
34765;SDS011;20984;43.508;1.504;2022-10-10T11:29:19;10.43;;;3.03;;
34765;SDS011;20984;43.508;1.504;2022-10-10T11:32:06;10.40;;;3.00;;
34765;SDS011;20984;43.508;1.504;2022-10-10T11:34:57;9.88;;;3.00;;
34765;SDS011;20984;43.508;1.504;2022-10-10T11:37:47;13.85;;;2.88;;
34765;SDS011;20984;43.508;1.504;2022-10-10T11:43:36;7.72;;;2.95;;
34765;SDS011;20984;43.508;1.504;2022-10-10T11:46:13;11.80;;;2.88;;
34765;SDS011;20984;43.508;1.504;2022-10-10T11:52:00;8.48;;;3.10;;
34765;SDS011;20984;43.508;1.504;2022-10-10T11:54:40;5.50;;;3.30;;
34765;SDS011;20984;43.508;1.504;2022-10-10T12:00:10;10.68;;;2.75;;
34765;SDS011;20984;43.508;1.504;2022-10-10T12:02:38;11.93;;;3.00;;
34765;SDS011;20984;43.508;1.504;2022-10-10T12:05:09;13.18;;;3.13;;
34765;SDS011;20984;43.508;1.504;2022-10-10T12:15:40;14.70;;;3.20;;
34765;SDS011;20984;43.508;1.504;2022-10-10T12:18:21;10.77;;;3.78;;
34765;SDS011;20984;43.508;1.504;2022-10-10T12:21:04;7.10;;;2.97;;
34765;SDS011;20984;43.508;1.504;2022-10-10T12:23:41;9.30;;;2.45;;
34765;SDS011;20984;43.508;1.504;2022-10-10T12:26:15;10.35;;;3.13;;
34765;SDS011;20984;43.508;1.504;2022-10-10T12:29:00;7.50;;;3.40;;
34765;SDS011;20984;43.508;1.504;2022-10-10T12:31:29;8.13;;;3.15;;
34765;SDS011;20984;43.508;1.504;2022-10-10T12:34:03;11.50;;;3.15;;
34765;SDS011;20984;43.508;1.504;2022-10-10T12:49:52;13.48;;;3.38;;
34765;SDS011;20984;43.508;1.504;2022-10-10T12:52:29;12.77;;;3.53;;
34765;SDS011;20984;43.508;1.504;2022-10-10T12:55:20;8.93;;;2.63;;
34765;SDS011;20984;43.508;1.504;2022-10-10T12:57:49;11.55;;;3.55;;
34765;SDS011;20984;43.508;1.504;2022-10-10T13:00:20;8.77;;;2.50;;
34765;SDS011;20984;43.508;1.504;2022-10-10T13:02:53;7.45;;;3.08;;
34765;SDS011;20984;43.508;1.504;2022-10-10T13:05:29;11.43;;;3.95;;
34765;SDS011;20984;43.508;1.504;2022-10-10T13:07:59;13.85;;;3.05;;
34765;SDS011;20984;43.508;1.504;2022-10-10T13:10:30;10.77;;;3.10;;
34765;SDS011;20984;43.508;1.504;2022-10-10T13:12:59;10.75;;;2.72;;
34765;SDS011;20984;43.508;1.504;2022-10-10T13:15:55;10.13;;;3.10;;
34765;SDS011;20984;43.508;1.504;2022-10-10T13:18:33;11.88;;;2.67;;
34765;SDS011;20984;43.508;1.504;2022-10-10T13:21:04;5.40;;;2.25;;
34765;SDS011;20984;43.508;1.504;2022-10-10T13:23:32;6.85;;;2.97;;
34765;SDS011;20984;43.508;1.504;2022-10-10T13:26:00;8.50;;;2.33;;
34765;SDS011;20984;43.508;1.504;2022-10-10T13:28:27;11.10;;;3.10;;
34765;SDS011;20984;43.508;1.504;2022-10-10T13:30:53;8.40;;;2.40;;
34765;SDS011;20984;43.508;1.504;2022-10-10T13:33:20;13.18;;;2.80;;
34765;SDS011;20984;43.508;1.504;2022-10-10T13:35:50;14.30;;;3.28;;
34765;SDS011;20984;43.508;1.504;2022-10-10T13:38:17;11.07;;;3.08;;
34765;SDS011;20984;43.508;1.504;2022-10-10T13:40:47;9.82;;;2.75;;
34765;SDS011;20984;43.508;1.504;2022-10-10T13:43:17;11.25;;;2.70;;
34765;SDS011;20984;43.508;1.504;2022-10-10T13:45:44;12.02;;;3.10;;
34765;SDS011;20984;43.508;1.504;2022-10-10T13:48:35;10.07;;;3.28;;
34765;SDS011;20984;43.508;1.504;2022-10-10T13:51:05;13.23;;;3.20;;
34765;SDS011;20984;43.508;1.504;2022-10-10T13:53:54;9.77;;;2.75;;
34765;SDS011;20984;43.508;1.504;2022-10-10T13:56:28;10.95;;;3.42;;
34765;SDS011;20984;43.508;1.504;2022-10-10T14:01:34;7.97;;;2.55;;
34765;SDS011;20984;43.508;1.504;2022-10-10T14:06:31;12.68;;;3.47;;
34765;SDS011;20984;43.508;1.504;2022-10-10T14:09:04;6.63;;;2.88;;
34765;SDS011;20984;43.508;1.504;2022-10-10T14:11:34;11.68;;;3.58;;
34765;SDS011;20984;43.508;1.504;2022-10-10T14:14:07;16.30;;;3.25;;
34765;SDS011;20984;43.508;1.504;2022-10-10T14:16:40;15.18;;;4.10;;
34765;SDS011;20984;43.508;1.504;2022-10-10T14:19:23;8.43;;;3.63;;
34765;SDS011;20984;43.508;1.504;2022-10-10T14:21:49;14.60;;;3.00;;
34765;SDS011;20984;43.508;1.504;2022-10-10T14:24:15;6.70;;;2.47;;
34765;SDS011;20984;43.508;1.504;2022-10-10T14:26:41;11.88;;;2.58;;
34765;SDS011;20984;43.508;1.504;2022-10-10T14:29:13;12.25;;;2.60;;
34765;SDS011;20984;43.508;1.504;2022-10-10T14:31:41;15.43;;;2.92;;
34765;SDS011;20984;43.508;1.504;2022-10-10T14:34:08;9.70;;;2.78;;
34765;SDS011;20984;43.508;1.504;2022-10-10T14:36:35;15.55;;;3.15;;
34765;SDS011;20984;43.508;1.504;2022-10-10T14:39:14;10.60;;;3.53;;
34765;SDS011;20984;43.508;1.504;2022-10-10T14:41:41;9.35;;;3.35;;
34765;SDS011;20984;43.508;1.504;2022-10-10T14:44:07;8.68;;;2.85;;
34765;SDS011;20984;43.508;1.504;2022-10-10T14:46:33;9.27;;;3.40;;
34765;SDS011;20984;43.508;1.504;2022-10-10T14:48:59;10.07;;;2.63;;
34765;SDS011;20984;43.508;1.504;2022-10-10T14:51:25;13.15;;;2.90;;
34765;SDS011;20984;43.508;1.504;2022-10-10T14:53:51;7.82;;;2.53;;
34765;SDS011;20984;43.508;1.504;2022-10-10T14:56:18;10.98;;;2.38;;
34765;SDS011;20984;43.508;1.504;2022-10-10T14:58:43;8.70;;;2.25;;
34765;SDS011;20984;43.508;1.504;2022-10-10T15:01:09;4.90;;;2.53;;
34765;SDS011;20984;43.508;1.504;2022-10-10T15:03:35;15.85;;;2.97;;
34765;SDS011;20984;43.508;1.504;2022-10-10T15:06:01;9.80;;;2.80;;
34765;SDS011;20984;43.508;1.504;2022-10-10T15:08:27;6.88;;;3.00;;
34765;SDS011;20984;43.508;1.504;2022-10-10T15:10:53;15.77;;;3.35;;
34765;SDS011;20984;43.508;1.504;2022-10-10T15:13:20;8.52;;;2.45;;
34765;SDS011;20984;43.508;1.504;2022-10-10T15:15:46;14.70;;;2.83;;
34765;SDS011;20984;43.508;1.504;2022-10-10T15:18:12;9.68;;;2.92;;
34765;SDS011;20984;43.508;1.504;2022-10-10T15:20:39;11.02;;;3.05;;
34765;SDS011;20984;43.508;1.504;2022-10-10T15:23:06;12.20;;;2.65;;
34765;SDS011;20984;43.508;1.504;2022-10-10T15:25:33;10.60;;;3.53;;
34765;SDS011;20984;43.508;1.504;2022-10-10T15:27:59;12.90;;;3.95;;
34765;SDS011;20984;43.508;1.504;2022-10-10T15:30:26;9.43;;;3.22;;
34765;SDS011;20984;43.508;1.504;2022-10-10T15:32:52;11.98;;;3.00;;
34765;SDS011;20984;43.508;1.504;2022-10-10T15:35:19;9.93;;;2.55;;
34765;SDS011;20984;43.508;1.504;2022-10-10T15:37:46;11.38;;;3.08;;
34765;SDS011;20984;43.508;1.504;2022-10-10T15:40:13;11.85;;;3.08;;
34765;SDS011;20984;43.508;1.504;2022-10-10T15:42:42;9.68;;;2.58;;
34765;SDS011;20984;43.508;1.504;2022-10-10T15:45:08;9.48;;;2.97;;
34765;SDS011;20984;43.508;1.504;2022-10-10T15:47:36;10.48;;;3.70;;
34765;SDS011;20984;43.508;1.504;2022-10-10T15:50:04;9.40;;;2.60;;
34765;SDS011;20984;43.508;1.504;2022-10-10T15:52:31;8.90;;;2.88;;
34765;SDS011;20984;43.508;1.504;2022-10-10T15:54:57;20.38;;;3.42;;
34765;SDS011;20984;43.508;1.504;2022-10-10T15:57:23;8.75;;;3.35;;
34765;SDS011;20984;43.508;1.504;2022-10-10T15:59:49;8.90;;;2.90;;
34765;SDS011;20984;43.508;1.504;2022-10-10T16:02:15;12.10;;;3.33;;
34765;SDS011;20984;43.508;1.504;2022-10-10T16:04:41;11.63;;;3.47;;
34765;SDS011;20984;43.508;1.504;2022-10-10T16:07:07;15.52;;;3.15;;
34765;SDS011;20984;43.508;1.504;2022-10-10T16:09:33;14.15;;;3.22;;
34765;SDS011;20984;43.508;1.504;2022-10-10T16:11:59;12.20;;;3.00;;
34765;SDS011;20984;43.508;1.504;2022-10-10T16:14:27;12.40;;;3.20;;
34765;SDS011;20984;43.508;1.504;2022-10-10T16:16:53;14.02;;;3.35;;
34765;SDS011;20984;43.508;1.504;2022-10-10T16:19:19;8.07;;;2.80;;
34765;SDS011;20984;43.508;1.504;2022-10-10T16:21:45;16.02;;;3.78;;
34765;SDS011;20984;43.508;1.504;2022-10-10T16:24:11;11.25;;;2.63;;
34765;SDS011;20984;43.508;1.504;2022-10-10T16:26:37;10.30;;;3.15;;
34765;SDS011;20984;43.508;1.504;2022-10-10T16:29:04;12.82;;;2.92;;
34765;SDS011;20984;43.508;1.504;2022-10-10T16:31:31;9.45;;;2.63;;
34765;SDS011;20984;43.508;1.504;2022-10-10T16:33:59;8.63;;;2.97;;
34765;SDS011;20984;43.508;1.504;2022-10-10T16:36:29;12.35;;;3.15;;